<?xml version='1.0' encoding='UTF-8'?>
<gpx xmlns="http://www.topografix.com/GPX/1/1" creator="www.balnam.be" version="1.1" xmlns:xsi="http://www.w3.org/2001/XMLSchema-instance" xsi:schemaLocation="http://www.topografix.com/GPX/1/1 http://www.topografix.com/GPX/1/1/gpx.xsd">
<trk>
<name>xnsms1</name>
<cmt>r</cmt>
<desc>Masbourg Chemin n°1 Rue Belair</desc>
<link href="https://chemins.be/masbourg/chemin/1"/><trkseg>
<trkpt lat="50.091992" lon="5.278798"><time>2026-05-02T19:16:29Z</time></trkpt>
<trkpt lat="50.091235" lon="5.278981"><time>2026-05-02T19:26:29Z</time></trkpt>
<trkpt lat="50.091142" lon="5.279168"><time>2026-05-02T19:36:29Z</time></trkpt>
<trkpt lat="50.091236" lon="5.279839"><time>2026-05-02T19:46:29Z</time></trkpt>
<trkpt lat="50.090959" lon="5.280527"><time>2026-05-02T19:56:29Z</time></trkpt>
</trkseg></trk>
<trk>
<name>xnsms1</name>
<cmt>s</cmt>
<desc>Masbourg Chemin n°1 Rue Belair</desc>
<link href="https://chemins.be/masbourg/chemin/1"/><trkseg>
<trkpt lat="50.090959" lon="5.280527"><time>2026-05-02T19:56:29Z</time></trkpt>
<trkpt lat="50.090283" lon="5.280944"><time>2026-05-02T20:06:29Z</time></trkpt>
</trkseg></trk>
<trk>
<name>xnsms1</name>
<cmt>v</cmt>
<desc>Masbourg Chemin n°1 Rue Belair</desc>
<link href="https://chemins.be/masbourg/chemin/1"/><trkseg>
<trkpt lat="50.090283" lon="5.280944"><time>2026-05-02T20:06:29Z</time></trkpt>
<trkpt lat="50.089589" lon="5.281602"><time>2026-05-02T20:16:29Z</time></trkpt>
</trkseg></trk>
<trk>
<name>xnsms1</name>
<cmt>r</cmt>
<desc>Masbourg Chemin n°1 Rue Belair</desc>
<link href="https://chemins.be/masbourg/chemin/1"/><trkseg>
<trkpt lat="50.089589" lon="5.281602"><time>2026-05-02T20:16:29Z</time></trkpt>
<trkpt lat="50.089005" lon="5.282154"><time>2026-05-02T20:26:29Z</time></trkpt>
<trkpt lat="50.086714" lon="5.282053"><time>2026-05-02T20:36:29Z</time></trkpt>
<trkpt lat="50.086081" lon="5.282890"><time>2026-05-02T20:46:29Z</time></trkpt>
<trkpt lat="50.084567" lon="5.283383"><time>2026-05-02T20:56:29Z</time></trkpt>
<trkpt lat="50.084382" lon="5.285727"><time>2026-05-02T21:06:29Z</time></trkpt>
<trkpt lat="50.084126" lon="5.287052"><time>2026-05-02T21:16:29Z</time></trkpt>
<trkpt lat="50.083097" lon="5.289847"><time>2026-05-02T21:26:29Z</time></trkpt>
<trkpt lat="50.082666" lon="5.290142"><time>2026-05-02T21:36:29Z</time></trkpt>
<trkpt lat="50.081771" lon="5.288614"><time>2026-05-02T21:46:29Z</time></trkpt>
</trkseg></trk>
<trk>
<name>xnsms1</name>
<cmt>v</cmt>
<desc>Masbourg Chemin n°1 Rue Belair</desc>
<link href="https://chemins.be/masbourg/chemin/1"/><trkseg>
<trkpt lat="50.081771" lon="5.288614"><time>2026-05-02T21:46:29Z</time></trkpt>
<trkpt lat="50.080794" lon="5.286795"><time>2026-05-02T21:56:29Z</time></trkpt>
<trkpt lat="50.076610" lon="5.288005"><time>2026-05-02T22:06:29Z</time></trkpt>
</trkseg></trk>
<trk>
<name>xnsms1</name>
<cmt>r</cmt>
<desc>Masbourg Chemin n°1 Rue Belair</desc>
<link href="https://chemins.be/masbourg/chemin/1"/><trkseg>
<trkpt lat="50.076610" lon="5.288005"><time>2026-05-02T22:06:29Z</time></trkpt>
<trkpt lat="50.074968" lon="5.287258"><time>2026-05-02T22:16:29Z</time></trkpt>
</trkseg>
</trk>
<trk>
<name>xnsms10</name>
<cmt>q</cmt>
<desc>Masbourg Sentier n°10 </desc>
<link href="https://chemins.be/masbourg/sentier/10"/><trkseg>
<trkpt lat="50.073964" lon="5.282782"><time>2026-05-02T19:16:29Z</time></trkpt>
<trkpt lat="50.077916" lon="5.282525"><time>2026-05-02T19:26:29Z</time></trkpt>
<trkpt lat="50.079734" lon="5.282396"><time>2026-05-02T19:36:29Z</time></trkpt>
<trkpt lat="50.082363" lon="5.277997"><time>2026-05-02T19:46:29Z</time></trkpt>
<trkpt lat="50.082790" lon="5.276452"><time>2026-05-02T19:56:29Z</time></trkpt>
<trkpt lat="50.083327" lon="5.276259"><time>2026-05-02T20:06:29Z</time></trkpt>
<trkpt lat="50.083888" lon="5.275082"><time>2026-05-02T20:16:29Z</time></trkpt>
<trkpt lat="50.084166" lon="5.274465"><time>2026-05-02T20:26:29Z</time></trkpt>
</trkseg></trk>
<trk>
<name>xnsms10</name>
<cmt>v</cmt>
<desc>Masbourg Sentier n°10 </desc>
<link href="https://chemins.be/masbourg/sentier/10"/><trkseg>
<trkpt lat="50.084166" lon="5.274465"><time>2026-05-02T20:26:29Z</time></trkpt>
<trkpt lat="50.084376" lon="5.273996"><time>2026-05-02T20:36:29Z</time></trkpt>
</trkseg>
</trk>
<trk>
<name>xnsms11</name>
<cmt>v</cmt>
<desc>Masbourg Sentier n°11 </desc>
<link href="https://chemins.be/masbourg/sentier/11"/><trkseg>
<trkpt lat="50.078705" lon="5.297466"><time>2026-05-02T19:16:29Z</time></trkpt>
<trkpt lat="50.078922" lon="5.297196"><time>2026-05-02T19:26:29Z</time></trkpt>
<trkpt lat="50.079601" lon="5.296778"><time>2026-05-02T19:36:29Z</time></trkpt>
<trkpt lat="50.080169" lon="5.296531"><time>2026-05-02T19:46:29Z</time></trkpt>
<trkpt lat="50.080507" lon="5.295895"><time>2026-05-02T19:56:29Z</time></trkpt>
</trkseg></trk>
<trk>
<name>xnsms11</name>
<cmt>q</cmt>
<desc>Masbourg Sentier n°11 </desc>
<link href="https://chemins.be/masbourg/sentier/11"/><trkseg>
<trkpt lat="50.080507" lon="5.295895"><time>2026-05-02T19:56:29Z</time></trkpt>
<trkpt lat="50.081268" lon="5.293981"><time>2026-05-02T20:06:29Z</time></trkpt>
<trkpt lat="50.082079" lon="5.291524"><time>2026-05-02T20:16:29Z</time></trkpt>
<trkpt lat="50.083111" lon="5.289854"><time>2026-05-02T20:26:29Z</time></trkpt>
</trkseg></trk>
<trk>
<name>xnsms11</name>
<cmt>v</cmt>
<desc>Masbourg Sentier n°11 </desc>
<link href="https://chemins.be/masbourg/sentier/11"/><trkseg>
<trkpt lat="50.083111" lon="5.289854"><time>2026-05-02T20:26:29Z</time></trkpt>
<trkpt lat="50.084386" lon="5.285795"><time>2026-05-02T20:36:29Z</time></trkpt>
<trkpt lat="50.084529" lon="5.283786"><time>2026-05-02T20:46:29Z</time></trkpt>
<trkpt lat="50.084023" lon="5.283117"><time>2026-05-02T20:56:29Z</time></trkpt>
<trkpt lat="50.083587" lon="5.280631"><time>2026-05-02T21:06:29Z</time></trkpt>
</trkseg></trk>
<trk>
<name>xnsms11</name>
<cmt>q</cmt>
<desc>Masbourg Sentier n°11 </desc>
<link href="https://chemins.be/masbourg/sentier/11"/><trkseg>
<trkpt lat="50.083587" lon="5.280631"><time>2026-05-02T21:06:29Z</time></trkpt>
<trkpt lat="50.083472" lon="5.279976"><time>2026-05-02T21:16:29Z</time></trkpt>
<trkpt lat="50.084356" lon="5.277188"><time>2026-05-02T21:26:29Z</time></trkpt>
</trkseg></trk>
<trk>
<name>xnsms11</name>
<cmt>v</cmt>
<desc>Masbourg Sentier n°11 </desc>
<link href="https://chemins.be/masbourg/sentier/11"/><trkseg>
<trkpt lat="50.084356" lon="5.277188"><time>2026-05-02T21:26:29Z</time></trkpt>
<trkpt lat="50.084813" lon="5.276779"><time>2026-05-02T21:36:29Z</time></trkpt>
<trkpt lat="50.085058" lon="5.276560"><time>2026-05-02T21:46:29Z</time></trkpt>
<trkpt lat="50.084904" lon="5.276153"><time>2026-05-02T21:56:29Z</time></trkpt>
<trkpt lat="50.084558" lon="5.275114"><time>2026-05-02T22:06:29Z</time></trkpt>
<trkpt lat="50.084535" lon="5.275068"><time>2026-05-02T22:16:29Z</time></trkpt>
<trkpt lat="50.084584" lon="5.274956"><time>2026-05-02T22:26:29Z</time></trkpt>
<trkpt lat="50.084177" lon="5.274534"><time>2026-05-02T22:36:29Z</time></trkpt>
</trkseg>
</trk>
<trk>
<name>xnsms12</name>
<cmt>v</cmt>
<desc>Masbourg Sentier n°12 </desc>
<link href="https://chemins.be/masbourg/sentier/12"/><trkseg>
<trkpt lat="50.086690" lon="5.281994"><time>2026-05-02T19:16:29Z</time></trkpt>
<trkpt lat="50.086160" lon="5.281523"><time>2026-05-02T19:26:29Z</time></trkpt>
<trkpt lat="50.084453" lon="5.280009"><time>2026-05-02T19:36:29Z</time></trkpt>
<trkpt lat="50.083606" lon="5.280631"><time>2026-05-02T19:46:29Z</time></trkpt>
<trkpt lat="50.083323" lon="5.280862"><time>2026-05-02T19:56:29Z</time></trkpt>
</trkseg>
</trk>
<trk>
<name>xnsms13</name>
<cmt>v</cmt>
<desc>Masbourg Sentier n°13 </desc>
<link href="https://chemins.be/masbourg/sentier/13"/><trkseg>
<trkpt lat="50.084536" lon="5.283678"><time>2026-05-02T19:16:29Z</time></trkpt>
<trkpt lat="50.083861" lon="5.284161"><time>2026-05-02T19:26:29Z</time></trkpt>
<trkpt lat="50.083289" lon="5.283936"><time>2026-05-02T19:36:29Z</time></trkpt>
<trkpt lat="50.082415" lon="5.282989"><time>2026-05-02T19:46:29Z</time></trkpt>
</trkseg></trk>
<trk>
<name>xnsms13</name>
<cmt>q</cmt>
<desc>Masbourg Sentier n°13 </desc>
<link href="https://chemins.be/masbourg/sentier/13"/><trkseg>
<trkpt lat="50.082415" lon="5.282989"><time>2026-05-02T19:46:29Z</time></trkpt>
<trkpt lat="50.081913" lon="5.282444"><time>2026-05-02T19:56:29Z</time></trkpt>
<trkpt lat="50.080887" lon="5.282219"><time>2026-05-02T20:06:29Z</time></trkpt>
<trkpt lat="50.079517" lon="5.282401"><time>2026-05-02T20:16:29Z</time></trkpt>
<trkpt lat="50.077933" lon="5.282466"><time>2026-05-02T20:26:29Z</time></trkpt>
<trkpt lat="50.076873" lon="5.280663"><time>2026-05-02T20:36:29Z</time></trkpt>
</trkseg>
</trk>
<trk>
<name>xnsms14</name>
<cmt>q</cmt>
<desc>Masbourg Sentier n°14 Rue du Général Baron Jacques</desc>
<link href="https://chemins.be/masbourg/sentier/14"/><trkseg>
<trkpt lat="50.092761" lon="5.279040"><time>2026-05-02T19:16:29Z</time></trkpt>
<trkpt lat="50.092966" lon="5.279225"><time>2026-05-02T19:26:29Z</time></trkpt>
<trkpt lat="50.093630" lon="5.279392"><time>2026-05-02T19:36:29Z</time></trkpt>
<trkpt lat="50.093878" lon="5.279872"><time>2026-05-02T19:46:29Z</time></trkpt>
</trkseg>
</trk>
<trk>
<name>xnsms15</name>
<cmt>v</cmt>
<desc>Masbourg Sentier n°15 Rue Américaine</desc>
<link href="https://chemins.be/masbourg/sentier/15"/><trkseg>
<trkpt lat="50.092984" lon="5.279268"><time>2026-05-02T19:16:29Z</time></trkpt>
<trkpt lat="50.092773" lon="5.279809"><time>2026-05-02T19:26:29Z</time></trkpt>
</trkseg></trk>
<trk>
<name>xnsms15</name>
<cmt>r</cmt>
<desc>Masbourg Sentier n°15 Rue Américaine</desc>
<link href="https://chemins.be/masbourg/sentier/15"/><trkseg>
<trkpt lat="50.092773" lon="5.279809"><time>2026-05-02T19:26:29Z</time></trkpt>
<trkpt lat="50.092788" lon="5.280130"><time>2026-05-02T19:36:29Z</time></trkpt>
</trkseg></trk>
<trk>
<name>xnsms15</name>
<cmt>q</cmt>
<desc>Masbourg Sentier n°15 Rue Américaine</desc>
<link href="https://chemins.be/masbourg/sentier/15"/><trkseg>
<trkpt lat="50.092788" lon="5.280130"><time>2026-05-02T19:36:29Z</time></trkpt>
<trkpt lat="50.093063" lon="5.280653"><time>2026-05-02T19:46:29Z</time></trkpt>
<trkpt lat="50.093096" lon="5.281087"><time>2026-05-02T19:56:29Z</time></trkpt>
</trkseg>
</trk>
<trk>
<name>xnsms17</name>
<cmt>r</cmt>
<desc>Masbourg Sentier n°17 Rue de la Victoire / Tiers-Hubiet</desc>
<link href="https://chemins.be/masbourg/sentier/17"/><trkseg>
<trkpt lat="50.092183" lon="5.281333"><time>2026-05-02T19:16:29Z</time></trkpt>
<trkpt lat="50.091979" lon="5.281605"><time>2026-05-02T19:26:29Z</time></trkpt>
</trkseg></trk>
<trk>
<name>xnsms17</name>
<cmt>s</cmt>
<desc>Masbourg Sentier n°17 Rue de la Victoire / Tiers-Hubiet</desc>
<link href="https://chemins.be/masbourg/sentier/17"/><trkseg>
<trkpt lat="50.091979" lon="5.281605"><time>2026-05-02T19:26:29Z</time></trkpt>
<trkpt lat="50.091706" lon="5.282195"><time>2026-05-02T19:36:29Z</time></trkpt>
</trkseg></trk>
<trk>
<name>xnsms17</name>
<cmt>r</cmt>
<desc>Masbourg Sentier n°17 Rue de la Victoire / Tiers-Hubiet</desc>
<link href="https://chemins.be/masbourg/sentier/17"/><trkseg>
<trkpt lat="50.091706" lon="5.282195"><time>2026-05-02T19:36:29Z</time></trkpt>
<trkpt lat="50.091547" lon="5.282524"><time>2026-05-02T19:46:29Z</time></trkpt>
</trkseg></trk>
<trk>
<name>xnsms17</name>
<cmt>v</cmt>
<desc>Masbourg Sentier n°17 Rue de la Victoire / Tiers-Hubiet</desc>
<link href="https://chemins.be/masbourg/sentier/17"/><trkseg>
<trkpt lat="50.091547" lon="5.282524"><time>2026-05-02T19:46:29Z</time></trkpt>
<trkpt lat="50.091377" lon="5.282395"><time>2026-05-02T19:56:29Z</time></trkpt>
<trkpt lat="50.090944" lon="5.283109"><time>2026-05-02T20:06:29Z</time></trkpt>
<trkpt lat="50.090759" lon="5.283284"><time>2026-05-02T20:16:29Z</time></trkpt>
<trkpt lat="50.090650" lon="5.283199"><time>2026-05-02T20:26:29Z</time></trkpt>
</trkseg>
</trk>
<trk>
<name>xnsms19</name>
<cmt>q</cmt>
<desc>Masbourg Sentier n°19 </desc>
<link href="https://chemins.be/masbourg/sentier/19"/><trkseg>
<trkpt lat="50.090544" lon="5.280884"><time>2026-05-02T19:16:29Z</time></trkpt>
<trkpt lat="50.089458" lon="5.282904"><time>2026-05-02T19:26:29Z</time></trkpt>
</trkseg></trk>
<trk>
<name>xnsms19</name>
<cmt>v</cmt>
<desc>Masbourg Sentier n°19 </desc>
<link href="https://chemins.be/masbourg/sentier/19"/><trkseg>
<trkpt lat="50.089458" lon="5.282904"><time>2026-05-02T19:26:29Z</time></trkpt>
<trkpt lat="50.088931" lon="5.283537"><time>2026-05-02T19:36:29Z</time></trkpt>
<trkpt lat="50.087905" lon="5.285948"><time>2026-05-02T19:46:29Z</time></trkpt>
<trkpt lat="50.086072" lon="5.290357"><time>2026-05-02T19:56:29Z</time></trkpt>
</trkseg>
</trk>
<trk>
<name>xnsms2</name>
<cmt>r</cmt>
<desc>Masbourg Chemin n°2 Rue Burlin / Rue Léon Herman</desc>
<link href="https://chemins.be/masbourg/chemin/2"/><trkseg>
<trkpt lat="50.092985" lon="5.283684"><time>2026-05-02T19:16:29Z</time></trkpt>
<trkpt lat="50.092768" lon="5.286168"><time>2026-05-02T19:26:29Z</time></trkpt>
<trkpt lat="50.093335" lon="5.288345"><time>2026-05-02T19:36:29Z</time></trkpt>
<trkpt lat="50.094138" lon="5.290219"><time>2026-05-02T19:46:29Z</time></trkpt>
<trkpt lat="50.093821" lon="5.291681"><time>2026-05-02T19:56:29Z</time></trkpt>
</trkseg></trk>
<trk>
<name>xnsms2</name>
<cmt>v</cmt>
<desc>Masbourg Chemin n°2 Rue Burlin / Rue Léon Herman</desc>
<link href="https://chemins.be/masbourg/chemin/2"/><trkseg>
<trkpt lat="50.093821" lon="5.291681"><time>2026-05-02T19:56:29Z</time></trkpt>
<trkpt lat="50.093630" lon="5.292977"><time>2026-05-02T20:06:29Z</time></trkpt>
<trkpt lat="50.091740" lon="5.296658"><time>2026-05-02T20:16:29Z</time></trkpt>
<trkpt lat="50.090688" lon="5.299281"><time>2026-05-02T20:26:29Z</time></trkpt>
<trkpt lat="50.088693" lon="5.303125"><time>2026-05-02T20:36:29Z</time></trkpt>
<trkpt lat="50.087316" lon="5.307780"><time>2026-05-02T20:46:29Z</time></trkpt>
<trkpt lat="50.087169" lon="5.309244"><time>2026-05-02T20:56:29Z</time></trkpt>
<trkpt lat="50.087859" lon="5.311703"><time>2026-05-02T21:06:29Z</time></trkpt>
<trkpt lat="50.087740" lon="5.315320"><time>2026-05-02T21:16:29Z</time></trkpt>
<trkpt lat="50.087982" lon="5.316485"><time>2026-05-02T21:26:29Z</time></trkpt>
<trkpt lat="50.088805" lon="5.319821"><time>2026-05-02T21:36:29Z</time></trkpt>
<trkpt lat="50.088850" lon="5.320524"><time>2026-05-02T21:46:29Z</time></trkpt>
<trkpt lat="50.089177" lon="5.321328"><time>2026-05-02T21:56:29Z</time></trkpt>
<trkpt lat="50.089473" lon="5.321650"><time>2026-05-02T22:06:29Z</time></trkpt>
<trkpt lat="50.090217" lon="5.323475"><time>2026-05-02T22:16:29Z</time></trkpt>
<trkpt lat="50.090563" lon="5.325101"><time>2026-05-02T22:26:29Z</time></trkpt>
<trkpt lat="50.090574" lon="5.325460"><time>2026-05-02T22:36:29Z</time></trkpt>
<trkpt lat="50.090545" lon="5.325551"><time>2026-05-02T22:46:29Z</time></trkpt>
<trkpt lat="50.090651" lon="5.325879"><time>2026-05-02T22:56:29Z</time></trkpt>
<trkpt lat="50.090943" lon="5.326420"><time>2026-05-02T23:06:29Z</time></trkpt>
<trkpt lat="50.090343" lon="5.326866"><time>2026-05-02T23:16:29Z</time></trkpt>
<trkpt lat="50.090266" lon="5.327535"><time>2026-05-02T23:26:29Z</time></trkpt>
<trkpt lat="50.091665" lon="5.330742"><time>2026-05-02T23:36:29Z</time></trkpt>
<trkpt lat="50.091642" lon="5.330901"><time>2026-05-02T23:46:29Z</time></trkpt>
<trkpt lat="50.091415" lon="5.331310"><time>2026-05-02T23:56:29Z</time></trkpt>
<trkpt lat="50.092636" lon="5.332386"><time>2026-05-03T00:06:29Z</time></trkpt>
<trkpt lat="50.092991" lon="5.333480"><time>2026-05-03T00:16:29Z</time></trkpt>
<trkpt lat="50.092968" lon="5.333692"><time>2026-05-03T00:26:29Z</time></trkpt>
</trkseg></trk>
<trk>
<name>xnsms2</name>
<cmt>r</cmt>
<desc>Masbourg Chemin n°2 Rue Burlin / Rue Léon Herman</desc>
<link href="https://chemins.be/masbourg/chemin/2"/><trkseg>
<trkpt lat="50.092968" lon="5.333692"><time>2026-05-03T00:26:29Z</time></trkpt>
<trkpt lat="50.094175" lon="5.333668"><time>2026-05-03T00:36:29Z</time></trkpt>
</trkseg></trk>
<trk>
<name>xnsms2</name>
<cmt>v</cmt>
<desc>Masbourg Chemin n°2 Rue Burlin / Rue Léon Herman</desc>
<link href="https://chemins.be/masbourg/chemin/2"/><trkseg>
<trkpt lat="50.094175" lon="5.333668"><time>2026-05-03T00:36:29Z</time></trkpt>
<trkpt lat="50.094412" lon="5.335144"><time>2026-05-03T00:46:29Z</time></trkpt>
<trkpt lat="50.097712" lon="5.336472"><time>2026-05-03T00:56:29Z</time></trkpt>
<trkpt lat="50.099177" lon="5.335545"><time>2026-05-03T01:06:29Z</time></trkpt>
<trkpt lat="50.102843" lon="5.337330"><time>2026-05-03T01:16:29Z</time></trkpt>
<trkpt lat="50.103460" lon="5.338497"><time>2026-05-03T01:26:29Z</time></trkpt>
</trkseg>
</trk>
<trk>
<name>xnsms20</name>
<cmt>v</cmt>
<desc>Masbourg Sentier n°20 </desc>
<link href="https://chemins.be/masbourg/sentier/20"/><trkseg>
<trkpt lat="50.091970" lon="5.299353"><time>2026-05-02T19:16:29Z</time></trkpt>
<trkpt lat="50.090676" lon="5.299278"><time>2026-05-02T19:26:29Z</time></trkpt>
<trkpt lat="50.089891" lon="5.300909"><time>2026-05-02T19:36:29Z</time></trkpt>
</trkseg></trk>
<trk>
<name>xnsms20</name>
<cmt>q</cmt>
<desc>Masbourg Sentier n°20 </desc>
<link href="https://chemins.be/masbourg/sentier/20"/><trkseg>
<trkpt lat="50.089891" lon="5.300909"><time>2026-05-02T19:36:29Z</time></trkpt>
<trkpt lat="50.087750" lon="5.301263"><time>2026-05-02T19:46:29Z</time></trkpt>
<trkpt lat="50.086063" lon="5.302648"><time>2026-05-02T19:56:29Z</time></trkpt>
</trkseg></trk>
<trk>
<name>xnsms20</name>
<cmt>v</cmt>
<desc>Masbourg Sentier n°20 </desc>
<link href="https://chemins.be/masbourg/sentier/20"/><trkseg>
<trkpt lat="50.086063" lon="5.302648"><time>2026-05-02T19:56:29Z</time></trkpt>
<trkpt lat="50.083640" lon="5.301618"><time>2026-05-02T20:06:29Z</time></trkpt>
<trkpt lat="50.081977" lon="5.301755"><time>2026-05-02T20:16:29Z</time></trkpt>
<trkpt lat="50.081305" lon="5.301481"><time>2026-05-02T20:26:29Z</time></trkpt>
</trkseg></trk>
<trk>
<name>xnsms20</name>
<cmt>d</cmt>
<desc>Masbourg Sentier n°20 </desc>
<link href="https://chemins.be/masbourg/sentier/20"/><trkseg>
<trkpt lat="50.081305" lon="5.301481"><time>2026-05-02T20:26:29Z</time></trkpt>
<trkpt lat="50.079443" lon="5.303214"><time>2026-05-02T20:36:29Z</time></trkpt>
</trkseg>
</trk>
<trk>
<name>xnsms21</name>
<cmt>v</cmt>
<desc>Masbourg Sentier n°21 Chemin devant Hédeumont</desc>
<link href="https://chemins.be/masbourg/sentier/21"/><trkseg>
<trkpt lat="50.112338" lon="5.315543"><time>2026-05-02T19:16:29Z</time></trkpt>
<trkpt lat="50.111874" lon="5.315156"><time>2026-05-02T19:26:29Z</time></trkpt>
<trkpt lat="50.111695" lon="5.315083"><time>2026-05-02T19:36:29Z</time></trkpt>
<trkpt lat="50.111524" lon="5.315023"><time>2026-05-02T19:46:29Z</time></trkpt>
<trkpt lat="50.111237" lon="5.315004"><time>2026-05-02T19:56:29Z</time></trkpt>
<trkpt lat="50.111084" lon="5.315015"><time>2026-05-02T20:06:29Z</time></trkpt>
<trkpt lat="50.110957" lon="5.315068"><time>2026-05-02T20:16:29Z</time></trkpt>
<trkpt lat="50.110102" lon="5.315219"><time>2026-05-02T20:26:29Z</time></trkpt>
<trkpt lat="50.109342" lon="5.314686"><time>2026-05-02T20:36:29Z</time></trkpt>
<trkpt lat="50.108515" lon="5.314642"><time>2026-05-02T20:46:29Z</time></trkpt>
<trkpt lat="50.107177" lon="5.315710"><time>2026-05-02T20:56:29Z</time></trkpt>
<trkpt lat="50.105999" lon="5.317085"><time>2026-05-02T21:06:29Z</time></trkpt>
<trkpt lat="50.104540" lon="5.317428"><time>2026-05-02T21:16:29Z</time></trkpt>
</trkseg></trk>
<trk>
<name>xnsms21</name>
<cmt>r</cmt>
<desc>Masbourg Sentier n°21 Chemin devant Hédeumont</desc>
<link href="https://chemins.be/masbourg/sentier/21"/><trkseg>
<trkpt lat="50.104540" lon="5.317428"><time>2026-05-02T21:16:29Z</time></trkpt>
<trkpt lat="50.103858" lon="5.317333"><time>2026-05-02T21:26:29Z</time></trkpt>
<trkpt lat="50.101870" lon="5.314166"><time>2026-05-02T21:36:29Z</time></trkpt>
<trkpt lat="50.098497" lon="5.313274"><time>2026-05-02T21:46:29Z</time></trkpt>
<trkpt lat="50.096977" lon="5.313327"><time>2026-05-02T21:56:29Z</time></trkpt>
</trkseg></trk>
<trk>
<name>xnsms21</name>
<cmt>v</cmt>
<desc>Masbourg Sentier n°21 Chemin devant Hédeumont</desc>
<link href="https://chemins.be/masbourg/sentier/21"/><trkseg>
<trkpt lat="50.096977" lon="5.313327"><time>2026-05-02T21:56:29Z</time></trkpt>
<trkpt lat="50.095243" lon="5.313370"><time>2026-05-02T22:06:29Z</time></trkpt>
<trkpt lat="50.093536" lon="5.313842"><time>2026-05-02T22:16:29Z</time></trkpt>
<trkpt lat="50.092627" lon="5.315773"><time>2026-05-02T22:26:29Z</time></trkpt>
<trkpt lat="50.089516" lon="5.316889"><time>2026-05-02T22:36:29Z</time></trkpt>
<trkpt lat="50.088448" lon="5.316320"><time>2026-05-02T22:46:29Z</time></trkpt>
<trkpt lat="50.088042" lon="5.316395"><time>2026-05-02T22:56:29Z</time></trkpt>
<trkpt lat="50.085468" lon="5.316803"><time>2026-05-02T23:06:29Z</time></trkpt>
</trkseg>
</trk>
<trk>
<name>xnsms22</name>
<cmt>q</cmt>
<desc>Masbourg Sentier n°22 </desc>
<link href="https://chemins.be/masbourg/sentier/22"/><trkseg>
<trkpt lat="50.108686" lon="5.311004"><time>2026-05-02T19:16:29Z</time></trkpt>
<trkpt lat="50.107430" lon="5.310076"><time>2026-05-02T19:26:29Z</time></trkpt>
</trkseg></trk>
<trk>
<name>xnsms22</name>
<cmt>v</cmt>
<desc>Masbourg Sentier n°22 </desc>
<link href="https://chemins.be/masbourg/sentier/22"/><trkseg>
<trkpt lat="50.107430" lon="5.310076"><time>2026-05-02T19:26:29Z</time></trkpt>
<trkpt lat="50.106168" lon="5.308945"><time>2026-05-02T19:36:29Z</time></trkpt>
<trkpt lat="50.104902" lon="5.309342"><time>2026-05-02T19:46:29Z</time></trkpt>
</trkseg>
</trk>
<trk>
<name>xnsms24</name>
<cmt>v</cmt>
<desc>Masbourg Sentier n°24 </desc>
<link href="https://chemins.be/masbourg/sentier/24"/><trkseg>
<trkpt lat="50.090635" lon="5.325923"><time>2026-05-02T19:16:29Z</time></trkpt>
<trkpt lat="50.090511" lon="5.325907"><time>2026-05-02T19:26:29Z</time></trkpt>
<trkpt lat="50.090005" lon="5.325038"><time>2026-05-02T19:36:29Z</time></trkpt>
<trkpt lat="50.089802" lon="5.325049"><time>2026-05-02T19:46:29Z</time></trkpt>
<trkpt lat="50.089719" lon="5.325306"><time>2026-05-02T19:56:29Z</time></trkpt>
<trkpt lat="50.089767" lon="5.326175"><time>2026-05-02T20:06:29Z</time></trkpt>
<trkpt lat="50.089606" lon="5.327822"><time>2026-05-02T20:16:29Z</time></trkpt>
</trkseg>
</trk>
<trk>
<name>xnsms25</name>
<cmt>v</cmt>
<desc>Masbourg Sentier n°25 Rue Pirette</desc>
<link href="https://chemins.be/masbourg/sentier/25"/><trkseg>
<trkpt lat="50.112360" lon="5.315572"><time>2026-05-02T19:16:29Z</time></trkpt>
<trkpt lat="50.112050" lon="5.316978"><time>2026-05-02T19:26:29Z</time></trkpt>
<trkpt lat="50.111325" lon="5.320275"><time>2026-05-02T19:36:29Z</time></trkpt>
<trkpt lat="50.110844" lon="5.321710"><time>2026-05-02T19:46:29Z</time></trkpt>
<trkpt lat="50.109761" lon="5.323408"><time>2026-05-02T19:56:29Z</time></trkpt>
<trkpt lat="50.109814" lon="5.323641"><time>2026-05-02T20:06:29Z</time></trkpt>
<trkpt lat="50.109769" lon="5.323784"><time>2026-05-02T20:16:29Z</time></trkpt>
<trkpt lat="50.108974" lon="5.324414"><time>2026-05-02T20:26:29Z</time></trkpt>
<trkpt lat="50.107449" lon="5.325771"><time>2026-05-02T20:36:29Z</time></trkpt>
<trkpt lat="50.107327" lon="5.325880"><time>2026-05-02T20:46:29Z</time></trkpt>
</trkseg></trk>
<trk>
<name>xnsms25</name>
<cmt>d</cmt>
<desc>Masbourg Sentier n°25 Rue Pirette</desc>
<link href="https://chemins.be/masbourg/sentier/25"/><trkseg>
<trkpt lat="50.107327" lon="5.325880"><time>2026-05-02T20:46:29Z</time></trkpt>
<trkpt lat="50.105991" lon="5.326474"><time>2026-05-02T20:56:29Z</time></trkpt>
</trkseg></trk>
<trk>
<name>xnsms25</name>
<cmt>v</cmt>
<desc>Masbourg Sentier n°25 Rue Pirette</desc>
<link href="https://chemins.be/masbourg/sentier/25"/><trkseg>
<trkpt lat="50.105991" lon="5.326474"><time>2026-05-02T20:56:29Z</time></trkpt>
<trkpt lat="50.104080" lon="5.326277"><time>2026-05-02T21:06:29Z</time></trkpt>
<trkpt lat="50.100249" lon="5.328618"><time>2026-05-02T21:16:29Z</time></trkpt>
<trkpt lat="50.099048" lon="5.329312"><time>2026-05-02T21:26:29Z</time></trkpt>
<trkpt lat="50.098828" lon="5.328488"><time>2026-05-02T21:36:29Z</time></trkpt>
<trkpt lat="50.098122" lon="5.328012"><time>2026-05-02T21:46:29Z</time></trkpt>
<trkpt lat="50.097793" lon="5.327862"><time>2026-05-02T21:56:29Z</time></trkpt>
<trkpt lat="50.096642" lon="5.328231"><time>2026-05-02T22:06:29Z</time></trkpt>
<trkpt lat="50.094545" lon="5.327106"><time>2026-05-02T22:16:29Z</time></trkpt>
<trkpt lat="50.093873" lon="5.323733"><time>2026-05-02T22:26:29Z</time></trkpt>
<trkpt lat="50.092926" lon="5.322329"><time>2026-05-02T22:36:29Z</time></trkpt>
</trkseg>
</trk>
<trk>
<name>xnsms26</name>
<cmt>v</cmt>
<desc>Masbourg Sentier n°26 </desc>
<link href="https://chemins.be/masbourg/sentier/26"/><trkseg>
<trkpt lat="50.102867" lon="5.328579"><time>2026-05-02T19:16:29Z</time></trkpt>
<trkpt lat="50.102790" lon="5.331206"><time>2026-05-02T19:26:29Z</time></trkpt>
<trkpt lat="50.100819" lon="5.336373"><time>2026-05-02T19:36:29Z</time></trkpt>
<trkpt lat="50.099222" lon="5.339832"><time>2026-05-02T19:46:29Z</time></trkpt>
</trkseg>
</trk>
<trk>
<name>xnsms27</name>
<cmt>v</cmt>
<desc>Masbourg Sentier n°27 Chemin de Freyr</desc>
<link href="https://chemins.be/masbourg/sentier/27"/><trkseg>
<trkpt lat="50.108255" lon="5.327667"><time>2026-05-02T19:16:29Z</time></trkpt>
<trkpt lat="50.108074" lon="5.329886"><time>2026-05-02T19:26:29Z</time></trkpt>
<trkpt lat="50.107749" lon="5.331166"><time>2026-05-02T19:36:29Z</time></trkpt>
<trkpt lat="50.107604" lon="5.333470"><time>2026-05-02T19:46:29Z</time></trkpt>
<trkpt lat="50.106887" lon="5.336419"><time>2026-05-02T19:56:29Z</time></trkpt>
</trkseg>
</trk>
<trk>
<name>xnsms28</name>
<cmt>q</cmt>
<desc>Masbourg Sentier n°28 </desc>
<link href="https://chemins.be/masbourg/sentier/28"/><trkseg>
<trkpt lat="50.108603" lon="5.326536"><time>2026-05-02T19:16:29Z</time></trkpt>
<trkpt lat="50.108232" lon="5.326806"><time>2026-05-02T19:26:29Z</time></trkpt>
</trkseg></trk>
<trk>
<name>xnsms28</name>
<cmt>v</cmt>
<desc>Masbourg Sentier n°28 </desc>
<link href="https://chemins.be/masbourg/sentier/28"/><trkseg>
<trkpt lat="50.108232" lon="5.326806"><time>2026-05-02T19:26:29Z</time></trkpt>
<trkpt lat="50.107904" lon="5.326665"><time>2026-05-02T19:36:29Z</time></trkpt>
<trkpt lat="50.107133" lon="5.326934"><time>2026-05-02T19:46:29Z</time></trkpt>
<trkpt lat="50.106759" lon="5.327064"><time>2026-05-02T19:56:29Z</time></trkpt>
<trkpt lat="50.105956" lon="5.326502"><time>2026-05-02T20:06:29Z</time></trkpt>
</trkseg>
</trk>
<trk>
<name>xnsms29</name>
<cmt>v</cmt>
<desc>Masbourg Sentier n°29 </desc>
<link href="https://chemins.be/masbourg/sentier/29"/><trkseg>
<trkpt lat="50.115084" lon="5.312899"><time>2026-05-02T19:16:29Z</time></trkpt>
<trkpt lat="50.115582" lon="5.313636"><time>2026-05-02T19:26:29Z</time></trkpt>
<trkpt lat="50.116460" lon="5.313919"><time>2026-05-02T19:36:29Z</time></trkpt>
<trkpt lat="50.117378" lon="5.313881"><time>2026-05-02T19:46:29Z</time></trkpt>
<trkpt lat="50.117655" lon="5.314168"><time>2026-05-02T19:56:29Z</time></trkpt>
<trkpt lat="50.118606" lon="5.315401"><time>2026-05-02T20:06:29Z</time></trkpt>
<trkpt lat="50.118826" lon="5.315965"><time>2026-05-02T20:16:29Z</time></trkpt>
<trkpt lat="50.118597" lon="5.316534"><time>2026-05-02T20:26:29Z</time></trkpt>
</trkseg>
</trk>
<trk>
<name>xnsms3</name>
<cmt>v</cmt>
<desc>Masbourg Chemin n°3 </desc>
<link href="https://chemins.be/masbourg/chemin/3"/><trkseg>
<trkpt lat="50.093326" lon="5.288303"><time>2026-05-02T19:16:29Z</time></trkpt>
<trkpt lat="50.092151" lon="5.288577"><time>2026-05-02T19:26:29Z</time></trkpt>
<trkpt lat="50.091815" lon="5.289023"><time>2026-05-02T19:36:29Z</time></trkpt>
<trkpt lat="50.091264" lon="5.291710"><time>2026-05-02T19:46:29Z</time></trkpt>
<trkpt lat="50.091386" lon="5.292491"><time>2026-05-02T19:56:29Z</time></trkpt>
<trkpt lat="50.091006" lon="5.293246"><time>2026-05-02T20:06:29Z</time></trkpt>
<trkpt lat="50.090850" lon="5.295238"><time>2026-05-02T20:16:29Z</time></trkpt>
<trkpt lat="50.090752" lon="5.296499"><time>2026-05-02T20:26:29Z</time></trkpt>
<trkpt lat="50.090483" lon="5.299722"><time>2026-05-02T20:36:29Z</time></trkpt>
<trkpt lat="50.088646" lon="5.303376"><time>2026-05-02T20:46:29Z</time></trkpt>
<trkpt lat="50.087334" lon="5.307752"><time>2026-05-02T20:56:29Z</time></trkpt>
<trkpt lat="50.087161" lon="5.309104"><time>2026-05-02T21:06:29Z</time></trkpt>
<trkpt lat="50.086640" lon="5.312378"><time>2026-05-02T21:16:29Z</time></trkpt>
<trkpt lat="50.085641" lon="5.316816"><time>2026-05-02T21:26:29Z</time></trkpt>
</trkseg>
</trk>
<trk>
<name>xnsms30</name>
<cmt>q</cmt>
<desc>Masbourg Sentier n°30 </desc>
<link href="https://chemins.be/masbourg/sentier/30"/><trkseg>
<trkpt lat="50.116573" lon="5.312824"><time>2026-05-02T19:16:29Z</time></trkpt>
<trkpt lat="50.117244" lon="5.311811"><time>2026-05-02T19:26:29Z</time></trkpt>
<trkpt lat="50.118136" lon="5.312026"><time>2026-05-02T19:36:29Z</time></trkpt>
<trkpt lat="50.119303" lon="5.313142"><time>2026-05-02T19:46:29Z</time></trkpt>
<trkpt lat="50.121464" lon="5.314059"><time>2026-05-02T19:56:29Z</time></trkpt>
<trkpt lat="50.121837" lon="5.314325"><time>2026-05-02T20:06:29Z</time></trkpt>
</trkseg>
</trk>
<trk>
<name>xnsms31</name>
<cmt>v</cmt>
<desc>Masbourg Sentier n°31 </desc>
<link href="https://chemins.be/masbourg/sentier/31"/><trkseg>
<trkpt lat="50.122680" lon="5.318104"><time>2026-05-02T19:16:29Z</time></trkpt>
<trkpt lat="50.122383" lon="5.319941"><time>2026-05-02T19:26:29Z</time></trkpt>
<trkpt lat="50.120028" lon="5.322893"><time>2026-05-02T19:36:29Z</time></trkpt>
<trkpt lat="50.119323" lon="5.324181"><time>2026-05-02T19:46:29Z</time></trkpt>
</trkseg></trk>
<trk>
<name>xnsms31</name>
<cmt>q</cmt>
<desc>Masbourg Sentier n°31 </desc>
<link href="https://chemins.be/masbourg/sentier/31"/><trkseg>
<trkpt lat="50.119323" lon="5.324181"><time>2026-05-02T19:46:29Z</time></trkpt>
<trkpt lat="50.118069" lon="5.325588"><time>2026-05-02T19:56:29Z</time></trkpt>
<trkpt lat="50.117590" lon="5.327923"><time>2026-05-02T20:06:29Z</time></trkpt>
<trkpt lat="50.117276" lon="5.328060"><time>2026-05-02T20:16:29Z</time></trkpt>
</trkseg></trk>
<trk>
<name>xnsms31</name>
<cmt>v</cmt>
<desc>Masbourg Sentier n°31 </desc>
<link href="https://chemins.be/masbourg/sentier/31"/><trkseg>
<trkpt lat="50.117276" lon="5.328060"><time>2026-05-02T20:16:29Z</time></trkpt>
<trkpt lat="50.117364" lon="5.329193"><time>2026-05-02T20:26:29Z</time></trkpt>
<trkpt lat="50.117903" lon="5.331528"><time>2026-05-02T20:36:29Z</time></trkpt>
</trkseg>
</trk>
<trk>
<name>xnsms32</name>
<cmt>q</cmt>
<desc>Masbourg Sentier n°32 Route d'Ambly</desc>
<link href="https://chemins.be/masbourg/sentier/32"/><trkseg>
<trkpt lat="50.114038" lon="5.317716"><time>2026-05-02T19:16:29Z</time></trkpt>
<trkpt lat="50.114538" lon="5.315908"><time>2026-05-02T19:26:29Z</time></trkpt>
<trkpt lat="50.114485" lon="5.315809"><time>2026-05-02T19:36:29Z</time></trkpt>
<trkpt lat="50.114881" lon="5.314656"><time>2026-05-02T19:46:29Z</time></trkpt>
<trkpt lat="50.114843" lon="5.313817"><time>2026-05-02T19:56:29Z</time></trkpt>
<trkpt lat="50.115053" lon="5.312956"><time>2026-05-02T20:06:29Z</time></trkpt>
</trkseg></trk>
<trk>
<name>xnsms32</name>
<cmt>v</cmt>
<desc>Masbourg Sentier n°32 Route d'Ambly</desc>
<link href="https://chemins.be/masbourg/sentier/32"/><trkseg>
<trkpt lat="50.115053" lon="5.312956"><time>2026-05-02T20:06:29Z</time></trkpt>
<trkpt lat="50.114936" lon="5.312885"><time>2026-05-02T20:16:29Z</time></trkpt>
<trkpt lat="50.114880" lon="5.312710"><time>2026-05-02T20:26:29Z</time></trkpt>
</trkseg></trk>
<trk>
<name>xnsms32</name>
<cmt>r</cmt>
<desc>Masbourg Sentier n°32 Route d'Ambly</desc>
<link href="https://chemins.be/masbourg/sentier/32"/><trkseg>
<trkpt lat="50.114880" lon="5.312710"><time>2026-05-02T20:26:29Z</time></trkpt>
<trkpt lat="50.114983" lon="5.312587"><time>2026-05-02T20:36:29Z</time></trkpt>
<trkpt lat="50.115081" lon="5.311198"><time>2026-05-02T20:46:29Z</time></trkpt>
</trkseg></trk>
<trk>
<name>xnsms32</name>
<cmt>v</cmt>
<desc>Masbourg Sentier n°32 Route d'Ambly</desc>
<link href="https://chemins.be/masbourg/sentier/32"/><trkseg>
<trkpt lat="50.115081" lon="5.311198"><time>2026-05-02T20:46:29Z</time></trkpt>
<trkpt lat="50.115591" lon="5.310266"><time>2026-05-02T20:56:29Z</time></trkpt>
<trkpt lat="50.116477" lon="5.308535"><time>2026-05-02T21:06:29Z</time></trkpt>
</trkseg>
</trk>
<trk>
<name>xnsms33</name>
<cmt>r</cmt>
<desc>Masbourg Sentier n°33 Rue du Thier</desc>
<link href="https://chemins.be/masbourg/sentier/33"/><trkseg>
<trkpt lat="50.113368" lon="5.316025"><time>2026-05-02T19:16:29Z</time></trkpt>
<trkpt lat="50.113675" lon="5.316382"><time>2026-05-02T19:26:29Z</time></trkpt>
<trkpt lat="50.113968" lon="5.317970"><time>2026-05-02T19:36:29Z</time></trkpt>
</trkseg></trk>
<trk>
<name>xnsms33</name>
<cmt>v</cmt>
<desc>Masbourg Sentier n°33 Rue du Thier</desc>
<link href="https://chemins.be/masbourg/sentier/33"/><trkseg>
<trkpt lat="50.113968" lon="5.317970"><time>2026-05-02T19:36:29Z</time></trkpt>
<trkpt lat="50.114722" lon="5.319228"><time>2026-05-02T19:46:29Z</time></trkpt>
<trkpt lat="50.115630" lon="5.320267"><time>2026-05-02T19:56:29Z</time></trkpt>
<trkpt lat="50.116005" lon="5.322483"><time>2026-05-02T20:06:29Z</time></trkpt>
<trkpt lat="50.116968" lon="5.326435"><time>2026-05-02T20:16:29Z</time></trkpt>
<trkpt lat="50.117215" lon="5.327531"><time>2026-05-02T20:26:29Z</time></trkpt>
<trkpt lat="50.117281" lon="5.328046"><time>2026-05-02T20:36:29Z</time></trkpt>
</trkseg>
</trk>
<trk>
<name>xnsms34</name>
<cmt>q</cmt>
<desc>Masbourg Sentier n°34 </desc>
<link href="https://chemins.be/masbourg/sentier/34"/><trkseg>
<trkpt lat="50.113064" lon="5.313545"><time>2026-05-02T19:16:29Z</time></trkpt>
<trkpt lat="50.113240" lon="5.312781"><time>2026-05-02T19:26:29Z</time></trkpt>
<trkpt lat="50.113091" lon="5.310490"><time>2026-05-02T19:36:29Z</time></trkpt>
<trkpt lat="50.112778" lon="5.309794"><time>2026-05-02T19:46:29Z</time></trkpt>
<trkpt lat="50.112508" lon="5.309726"><time>2026-05-02T19:56:29Z</time></trkpt>
</trkseg>
</trk>
<trk>
<name>xnsms35</name>
<cmt>r</cmt>
<desc>Masbourg Sentier n°35 Rue Les Grands Prés</desc>
<link href="https://chemins.be/masbourg/sentier/35"/><trkseg>
<trkpt lat="50.113665" lon="5.313394"><time>2026-05-02T19:16:29Z</time></trkpt>
<trkpt lat="50.113731" lon="5.313008"><time>2026-05-02T19:26:29Z</time></trkpt>
<trkpt lat="50.113505" lon="5.312609"><time>2026-05-02T19:36:29Z</time></trkpt>
<trkpt lat="50.113461" lon="5.312167"><time>2026-05-02T19:46:29Z</time></trkpt>
<trkpt lat="50.113700" lon="5.311467"><time>2026-05-02T19:56:29Z</time></trkpt>
</trkseg></trk>
<trk>
<name>xnsms35</name>
<cmt>q</cmt>
<desc>Masbourg Sentier n°35 Rue Les Grands Prés</desc>
<link href="https://chemins.be/masbourg/sentier/35"/><trkseg>
<trkpt lat="50.113700" lon="5.311467"><time>2026-05-02T19:56:29Z</time></trkpt>
<trkpt lat="50.113778" lon="5.311343"><time>2026-05-02T20:06:29Z</time></trkpt>
<trkpt lat="50.114223" lon="5.310734"><time>2026-05-02T20:16:29Z</time></trkpt>
<trkpt lat="50.114022" lon="5.308221"><time>2026-05-02T20:26:29Z</time></trkpt>
<trkpt lat="50.113961" lon="5.305913"><time>2026-05-02T20:36:29Z</time></trkpt>
<trkpt lat="50.113106" lon="5.301215"><time>2026-05-02T20:46:29Z</time></trkpt>
<trkpt lat="50.112836" lon="5.300957"><time>2026-05-02T20:56:29Z</time></trkpt>
<trkpt lat="50.112649" lon="5.301078"><time>2026-05-02T21:06:29Z</time></trkpt>
</trkseg>
</trk>
<trk>
<name>xnsms36</name>
<cmt>q</cmt>
<desc>Masbourg Sentier n°36 Les Croisettes</desc>
<link href="https://chemins.be/masbourg/sentier/36"/><trkseg>
<trkpt lat="50.090278" lon="5.280924"><time>2026-05-02T19:16:29Z</time></trkpt>
<trkpt lat="50.089233" lon="5.280281"><time>2026-05-02T19:26:29Z</time></trkpt>
<trkpt lat="50.088420" lon="5.280289"><time>2026-05-02T19:36:29Z</time></trkpt>
</trkseg></trk>
<trk>
<name>xnsms36</name>
<cmt>v</cmt>
<desc>Masbourg Sentier n°36 Les Croisettes</desc>
<link href="https://chemins.be/masbourg/sentier/36"/><trkseg>
<trkpt lat="50.088420" lon="5.280289"><time>2026-05-02T19:36:29Z</time></trkpt>
<trkpt lat="50.088007" lon="5.280481"><time>2026-05-02T19:46:29Z</time></trkpt>
<trkpt lat="50.087569" lon="5.280403"><time>2026-05-02T19:56:29Z</time></trkpt>
</trkseg></trk>
<trk>
<name>xnsms36</name>
<cmt>d</cmt>
<desc>Masbourg Sentier n°36 Les Croisettes</desc>
<link href="https://chemins.be/masbourg/sentier/36"/><trkseg>
<trkpt lat="50.087569" lon="5.280403"><time>2026-05-02T19:56:29Z</time></trkpt>
<trkpt lat="50.087049" lon="5.280022"><time>2026-05-02T20:06:29Z</time></trkpt>
</trkseg></trk>
<trk>
<name>xnsms36</name>
<cmt>v</cmt>
<desc>Masbourg Sentier n°36 Les Croisettes</desc>
<link href="https://chemins.be/masbourg/sentier/36"/><trkseg>
<trkpt lat="50.087049" lon="5.280022"><time>2026-05-02T20:06:29Z</time></trkpt>
<trkpt lat="50.086564" lon="5.279772"><time>2026-05-02T20:16:29Z</time></trkpt>
<trkpt lat="50.085909" lon="5.279038"><time>2026-05-02T20:26:29Z</time></trkpt>
<trkpt lat="50.084815" lon="5.276777"><time>2026-05-02T20:36:29Z</time></trkpt>
<trkpt lat="50.084354" lon="5.277176"><time>2026-05-02T20:46:29Z</time></trkpt>
<trkpt lat="50.082903" lon="5.276434"><time>2026-05-02T20:56:29Z</time></trkpt>
<trkpt lat="50.080478" lon="5.275965"><time>2026-05-02T21:06:29Z</time></trkpt>
<trkpt lat="50.077956" lon="5.274952"><time>2026-05-02T21:16:29Z</time></trkpt>
<trkpt lat="50.076821" lon="5.273814"><time>2026-05-02T21:26:29Z</time></trkpt>
<trkpt lat="50.076181" lon="5.273411"><time>2026-05-02T21:36:29Z</time></trkpt>
<trkpt lat="50.074375" lon="5.272171"><time>2026-05-02T21:46:29Z</time></trkpt>
<trkpt lat="50.071555" lon="5.271090"><time>2026-05-02T21:56:29Z</time></trkpt>
<trkpt lat="50.070850" lon="5.271021"><time>2026-05-02T22:06:29Z</time></trkpt>
</trkseg>
</trk>
<trk>
<name>xnsms4</name>
<cmt>v</cmt>
<desc>Masbourg Chemin n°4 Route d'Ambly / Rue des Roches / Rue de Mormont</desc>
<link href="https://chemins.be/masbourg/chemin/4"/><trkseg>
<trkpt lat="50.125689" lon="5.316581"><time>2026-05-02T19:16:29Z</time></trkpt>
<trkpt lat="50.124841" lon="5.317543"><time>2026-05-02T19:26:29Z</time></trkpt>
<trkpt lat="50.123807" lon="5.317594"><time>2026-05-02T19:36:29Z</time></trkpt>
</trkseg></trk>
<trk>
<name>xnsms4</name>
<cmt>r</cmt>
<desc>Masbourg Chemin n°4 Route d'Ambly / Rue des Roches / Rue de Mormont</desc>
<link href="https://chemins.be/masbourg/chemin/4"/><trkseg>
<trkpt lat="50.123807" lon="5.317594"><time>2026-05-02T19:36:29Z</time></trkpt>
<trkpt lat="50.122893" lon="5.317957"><time>2026-05-02T19:46:29Z</time></trkpt>
<trkpt lat="50.122662" lon="5.318049"><time>2026-05-02T19:56:29Z</time></trkpt>
<trkpt lat="50.119866" lon="5.315843"><time>2026-05-02T20:06:29Z</time></trkpt>
<trkpt lat="50.118854" lon="5.314315"><time>2026-05-02T20:16:29Z</time></trkpt>
<trkpt lat="50.116641" lon="5.312762"><time>2026-05-02T20:26:29Z</time></trkpt>
<trkpt lat="50.115007" lon="5.312667"><time>2026-05-02T20:36:29Z</time></trkpt>
<trkpt lat="50.113967" lon="5.313019"><time>2026-05-02T20:46:29Z</time></trkpt>
<trkpt lat="50.113439" lon="5.313819"><time>2026-05-02T20:56:29Z</time></trkpt>
<trkpt lat="50.113059" lon="5.313665"><time>2026-05-02T21:06:29Z</time></trkpt>
<trkpt lat="50.112993" lon="5.313515"><time>2026-05-02T21:16:29Z</time></trkpt>
</trkseg></trk>
<trk>
<name>xnsms4</name>
<cmt>v</cmt>
<desc>Masbourg Chemin n°4 Route d'Ambly / Rue des Roches / Rue de Mormont</desc>
<link href="https://chemins.be/masbourg/chemin/4"/><trkseg>
<trkpt lat="50.112993" lon="5.313515"><time>2026-05-02T21:16:29Z</time></trkpt>
<trkpt lat="50.112758" lon="5.313467"><time>2026-05-02T21:26:29Z</time></trkpt>
<trkpt lat="50.112764" lon="5.313121"><time>2026-05-02T21:36:29Z</time></trkpt>
<trkpt lat="50.112577" lon="5.312914"><time>2026-05-02T21:46:29Z</time></trkpt>
<trkpt lat="50.112041" lon="5.312815"><time>2026-05-02T21:56:29Z</time></trkpt>
<trkpt lat="50.111912" lon="5.312596"><time>2026-05-02T22:06:29Z</time></trkpt>
</trkseg></trk>
<trk>
<name>xnsms4</name>
<cmt>r</cmt>
<desc>Masbourg Chemin n°4 Route d'Ambly / Rue des Roches / Rue de Mormont</desc>
<link href="https://chemins.be/masbourg/chemin/4"/><trkseg>
<trkpt lat="50.111912" lon="5.312596"><time>2026-05-02T22:06:29Z</time></trkpt>
<trkpt lat="50.110888" lon="5.312209"><time>2026-05-02T22:16:29Z</time></trkpt>
<trkpt lat="50.109985" lon="5.310836"><time>2026-05-02T22:26:29Z</time></trkpt>
<trkpt lat="50.108950" lon="5.310201"><time>2026-05-02T22:36:29Z</time></trkpt>
</trkseg></trk>
<trk>
<name>xnsms4</name>
<cmt>s</cmt>
<desc>Masbourg Chemin n°4 Route d'Ambly / Rue des Roches / Rue de Mormont</desc>
<link href="https://chemins.be/masbourg/chemin/4"/><trkseg>
<trkpt lat="50.108950" lon="5.310201"><time>2026-05-02T22:36:29Z</time></trkpt>
<trkpt lat="50.108748" lon="5.311080"><time>2026-05-02T22:46:29Z</time></trkpt>
<trkpt lat="50.107328" lon="5.311698"><time>2026-05-02T22:56:29Z</time></trkpt>
</trkseg></trk>
<trk>
<name>xnsms4</name>
<cmt>v</cmt>
<desc>Masbourg Chemin n°4 Route d'Ambly / Rue des Roches / Rue de Mormont</desc>
<link href="https://chemins.be/masbourg/chemin/4"/><trkseg>
<trkpt lat="50.107328" lon="5.311698"><time>2026-05-02T22:56:29Z</time></trkpt>
<trkpt lat="50.105451" lon="5.313131"><time>2026-05-02T23:06:29Z</time></trkpt>
<trkpt lat="50.104270" lon="5.313190"><time>2026-05-02T23:16:29Z</time></trkpt>
<trkpt lat="50.101460" lon="5.313902"><time>2026-05-02T23:26:29Z</time></trkpt>
</trkseg></trk>
<trk>
<name>xnsms4</name>
<cmt>r</cmt>
<desc>Masbourg Chemin n°4 Route d'Ambly / Rue des Roches / Rue de Mormont</desc>
<link href="https://chemins.be/masbourg/chemin/4"/><trkseg>
<trkpt lat="50.101460" lon="5.313902"><time>2026-05-02T23:26:29Z</time></trkpt>
<trkpt lat="50.099418" lon="5.313553"><time>2026-05-02T23:36:29Z</time></trkpt>
<trkpt lat="50.098484" lon="5.313317"><time>2026-05-02T23:46:29Z</time></trkpt>
<trkpt lat="50.097015" lon="5.313325"><time>2026-05-02T23:56:29Z</time></trkpt>
</trkseg></trk>
<trk>
<name>xnsms4</name>
<cmt>v</cmt>
<desc>Masbourg Chemin n°4 Route d'Ambly / Rue des Roches / Rue de Mormont</desc>
<link href="https://chemins.be/masbourg/chemin/4"/><trkseg>
<trkpt lat="50.097015" lon="5.313325"><time>2026-05-02T23:56:29Z</time></trkpt>
<trkpt lat="50.096220" lon="5.315081"><time>2026-05-03T00:06:29Z</time></trkpt>
<trkpt lat="50.095352" lon="5.318106"><time>2026-05-03T00:16:29Z</time></trkpt>
<trkpt lat="50.094625" lon="5.318978"><time>2026-05-03T00:26:29Z</time></trkpt>
<trkpt lat="50.090526" lon="5.321410"><time>2026-05-03T00:36:29Z</time></trkpt>
<trkpt lat="50.089526" lon="5.321627"><time>2026-05-03T00:46:29Z</time></trkpt>
<trkpt lat="50.089009" lon="5.322211"><time>2026-05-03T00:56:29Z</time></trkpt>
</trkseg>
</trk>
<trk>
<name>xnsms5</name>
<cmt>b</cmt>
<desc>Masbourg Chemin n°5 </desc>
<link href="https://chemins.be/masbourg/chemin/5"/><trkseg>
<trkpt lat="50.113083" lon="5.316946"><time>2026-05-02T19:16:29Z</time></trkpt>
<trkpt lat="50.113254" lon="5.317354"><time>2026-05-02T19:26:29Z</time></trkpt>
<trkpt lat="50.113292" lon="5.318237"><time>2026-05-02T19:36:29Z</time></trkpt>
<trkpt lat="50.113072" lon="5.319045"><time>2026-05-02T19:46:29Z</time></trkpt>
<trkpt lat="50.112849" lon="5.319503"><time>2026-05-02T19:56:29Z</time></trkpt>
</trkseg>
</trk>
<trk>
<name>xnsms6</name>
<cmt>r</cmt>
<desc>Masbourg Chemin n°6 Rue de la Vallée</desc>
<link href="https://chemins.be/masbourg/chemin/6"/><trkseg>
<trkpt lat="50.112546" lon="5.311946"><time>2026-05-02T19:16:29Z</time></trkpt>
<trkpt lat="50.112398" lon="5.310513"><time>2026-05-02T19:26:29Z</time></trkpt>
</trkseg></trk>
<trk>
<name>xnsms6</name>
<cmt>s</cmt>
<desc>Masbourg Chemin n°6 Rue de la Vallée</desc>
<link href="https://chemins.be/masbourg/chemin/6"/><trkseg>
<trkpt lat="50.112398" lon="5.310513"><time>2026-05-02T19:26:29Z</time></trkpt>
<trkpt lat="50.112502" lon="5.309689"><time>2026-05-02T19:36:29Z</time></trkpt>
<trkpt lat="50.112315" lon="5.309174"><time>2026-05-02T19:46:29Z</time></trkpt>
</trkseg></trk>
<trk>
<name>xnsms6</name>
<cmt>r</cmt>
<desc>Masbourg Chemin n°6 Rue de la Vallée</desc>
<link href="https://chemins.be/masbourg/chemin/6"/><trkseg>
<trkpt lat="50.112315" lon="5.309174"><time>2026-05-02T19:46:29Z</time></trkpt>
<trkpt lat="50.112304" lon="5.308419"><time>2026-05-02T19:56:29Z</time></trkpt>
<trkpt lat="50.112706" lon="5.306316"><time>2026-05-02T20:06:29Z</time></trkpt>
<trkpt lat="50.112772" lon="5.301715"><time>2026-05-02T20:16:29Z</time></trkpt>
<trkpt lat="50.112701" lon="5.301123"><time>2026-05-02T20:26:29Z</time></trkpt>
</trkseg>
</trk>
<trk>
<name>xnsms7</name>
<cmt>r</cmt>
<desc>Masbourg Chemin n°7 Rue du Chession</desc>
<link href="https://chemins.be/masbourg/chemin/7"/><trkseg>
<trkpt lat="50.112184" lon="5.309150"><time>2026-05-02T19:16:29Z</time></trkpt>
<trkpt lat="50.111152" lon="5.308850"><time>2026-05-02T19:26:29Z</time></trkpt>
<trkpt lat="50.110794" lon="5.308675"><time>2026-05-02T19:36:29Z</time></trkpt>
<trkpt lat="50.109777" lon="5.307590"><time>2026-05-02T19:46:29Z</time></trkpt>
</trkseg></trk>
<trk>
<name>xnsms7</name>
<cmt>v</cmt>
<desc>Masbourg Chemin n°7 Rue du Chession</desc>
<link href="https://chemins.be/masbourg/chemin/7"/><trkseg>
<trkpt lat="50.109777" lon="5.307590"><time>2026-05-02T19:46:29Z</time></trkpt>
<trkpt lat="50.109264" lon="5.306935"><time>2026-05-02T19:56:29Z</time></trkpt>
<trkpt lat="50.108464" lon="5.305916"><time>2026-05-02T20:06:29Z</time></trkpt>
<trkpt lat="50.107642" lon="5.304680"><time>2026-05-02T20:16:29Z</time></trkpt>
</trkseg>
</trk>
<trk>
<name>xnsms7bis</name>
<cmt>v</cmt>
<desc>Masbourg Chemin n°7bis </desc>
<link href="https://chemins.be/masbourg/chemin/7bis"/><trkseg>
<trkpt lat="50.092954" lon="5.284215"><time>2026-05-02T19:16:29Z</time></trkpt>
<trkpt lat="50.094720" lon="5.285940"><time>2026-05-02T19:26:29Z</time></trkpt>
<trkpt lat="50.095360" lon="5.286944"><time>2026-05-02T19:36:29Z</time></trkpt>
<trkpt lat="50.095768" lon="5.287665"><time>2026-05-02T19:46:29Z</time></trkpt>
<trkpt lat="50.097345" lon="5.290298"><time>2026-05-02T19:56:29Z</time></trkpt>
<trkpt lat="50.097015" lon="5.290873"><time>2026-05-02T20:06:29Z</time></trkpt>
<trkpt lat="50.097021" lon="5.291048"><time>2026-05-02T20:16:29Z</time></trkpt>
</trkseg>
</trk>
<trk>
<name>xnsms8</name>
<cmt>v</cmt>
<desc>Masbourg Chemin n°8 </desc>
<link href="https://chemins.be/masbourg/chemin/8"/><trkseg>
<trkpt lat="50.104614" lon="5.317445"><time>2026-05-02T19:16:29Z</time></trkpt>
<trkpt lat="50.106002" lon="5.317016"><time>2026-05-02T19:26:29Z</time></trkpt>
</trkseg></trk>
<trk>
<name>xnsms8</name>
<cmt>q</cmt>
<desc>Masbourg Chemin n°8 </desc>
<link href="https://chemins.be/masbourg/chemin/8"/><trkseg>
<trkpt lat="50.106002" lon="5.317016"><time>2026-05-02T19:26:29Z</time></trkpt>
<trkpt lat="50.106079" lon="5.315780"><time>2026-05-02T19:36:29Z</time></trkpt>
<trkpt lat="50.106723" lon="5.314484"><time>2026-05-02T19:46:29Z</time></trkpt>
<trkpt lat="50.109717" lon="5.310613"><time>2026-05-02T19:56:29Z</time></trkpt>
</trkseg>
</trk>
<trk>
<name>xnsmsi1</name>
<cmt>v</cmt>
<desc>Masbourg Sentier n°i1 </desc>
<link href="https://chemins.be/masbourg/sentier/i1"/><trkseg>
<trkpt lat="50.091981" lon="5.279558"><time>2026-05-02T19:16:29Z</time></trkpt>
<trkpt lat="50.091881" lon="5.279525"><time>2026-05-02T19:26:29Z</time></trkpt>
<trkpt lat="50.091455" lon="5.279829"><time>2026-05-02T19:36:29Z</time></trkpt>
<trkpt lat="50.091198" lon="5.279988"><time>2026-05-02T19:46:29Z</time></trkpt>
</trkseg>
</trk>
<trk>
<name>xnsmsi10</name>
<cmt>v</cmt>
<desc>Masbourg Chemin n°i10 </desc>
<link href="https://chemins.be/masbourg/chemin/i10"/><trkseg>
<trkpt lat="50.089117" lon="5.321360"><time>2026-05-02T19:16:29Z</time></trkpt>
<trkpt lat="50.091096" lon="5.319246"><time>2026-05-02T19:26:29Z</time></trkpt>
<trkpt lat="50.093849" lon="5.317005"><time>2026-05-02T19:36:29Z</time></trkpt>
<trkpt lat="50.094461" lon="5.315097"><time>2026-05-02T19:46:29Z</time></trkpt>
<trkpt lat="50.095052" lon="5.314430"><time>2026-05-02T19:56:29Z</time></trkpt>
<trkpt lat="50.095123" lon="5.313444"><time>2026-05-02T20:06:29Z</time></trkpt>
</trkseg>
</trk>
<trk>
<name>xnsmsi11</name>
<cmt>v</cmt>
<desc>Masbourg Chemin n°i11 </desc>
<link href="https://chemins.be/masbourg/chemin/i11"/><trkseg>
<trkpt lat="50.107327" lon="5.325881"><time>2026-05-02T19:16:29Z</time></trkpt>
<trkpt lat="50.107295" lon="5.325943"><time>2026-05-02T19:26:29Z</time></trkpt>
<trkpt lat="50.107550" lon="5.326627"><time>2026-05-02T19:36:29Z</time></trkpt>
<trkpt lat="50.107648" lon="5.326758"><time>2026-05-02T19:46:29Z</time></trkpt>
</trkseg>
</trk>
<trk>
<name>xnsmsi12</name>
<cmt>v</cmt>
<desc>Masbourg Chemin n°i12 </desc>
<link href="https://chemins.be/masbourg/chemin/i12"/><trkseg>
<trkpt lat="50.076555" lon="5.287971"><time>2026-05-02T19:16:29Z</time></trkpt>
<trkpt lat="50.076426" lon="5.289459"><time>2026-05-02T19:26:29Z</time></trkpt>
<trkpt lat="50.077574" lon="5.290661"><time>2026-05-02T19:36:29Z</time></trkpt>
<trkpt lat="50.077849" lon="5.291862"><time>2026-05-02T19:46:29Z</time></trkpt>
<trkpt lat="50.078051" lon="5.293221"><time>2026-05-02T19:56:29Z</time></trkpt>
<trkpt lat="50.078317" lon="5.293407"><time>2026-05-02T20:06:29Z</time></trkpt>
<trkpt lat="50.079006" lon="5.295553"><time>2026-05-02T20:16:29Z</time></trkpt>
<trkpt lat="50.079557" lon="5.295882"><time>2026-05-02T20:26:29Z</time></trkpt>
<trkpt lat="50.079667" lon="5.296397"><time>2026-05-02T20:36:29Z</time></trkpt>
<trkpt lat="50.079594" lon="5.296769"><time>2026-05-02T20:46:29Z</time></trkpt>
</trkseg>
</trk>
<trk>
<name>xnsmsi13</name>
<cmt>v</cmt>
<desc>Masbourg Chemin n°i13 </desc>
<link href="https://chemins.be/masbourg/chemin/i13"/><trkseg>
<trkpt lat="50.077868" lon="5.291862"><time>2026-05-02T19:16:29Z</time></trkpt>
<trkpt lat="50.077682" lon="5.292396"><time>2026-05-02T19:26:29Z</time></trkpt>
<trkpt lat="50.076610" lon="5.293093"><time>2026-05-02T19:36:29Z</time></trkpt>
<trkpt lat="50.076041" lon="5.292950"><time>2026-05-02T19:46:29Z</time></trkpt>
<trkpt lat="50.075664" lon="5.293236"><time>2026-05-02T19:56:29Z</time></trkpt>
<trkpt lat="50.075272" lon="5.295410"><time>2026-05-02T20:06:29Z</time></trkpt>
<trkpt lat="50.075231" lon="5.295818"><time>2026-05-02T20:16:29Z</time></trkpt>
</trkseg>
</trk>
<trk>
<name>xnsmsi14</name>
<cmt>v</cmt>
<desc>Masbourg Chemin n°i14 </desc>
<link href="https://chemins.be/masbourg/chemin/i14"/><trkseg>
<trkpt lat="50.091011" lon="5.281555"><time>2026-05-02T19:16:29Z</time></trkpt>
<trkpt lat="50.090909" lon="5.281372"><time>2026-05-02T19:26:29Z</time></trkpt>
<trkpt lat="50.090675" lon="5.281275"><time>2026-05-02T19:36:29Z</time></trkpt>
<trkpt lat="50.090283" lon="5.280946"><time>2026-05-02T19:46:29Z</time></trkpt>
</trkseg>
</trk>
<trk>
<name>xnsmsi15</name>
<cmt>v</cmt>
<desc>Masbourg Chemin n°i15 </desc>
<link href="https://chemins.be/masbourg/chemin/i15"/><trkseg>
<trkpt lat="50.118618" lon="5.316541"><time>2026-05-02T19:16:29Z</time></trkpt>
<trkpt lat="50.118091" lon="5.318558"><time>2026-05-02T19:26:29Z</time></trkpt>
<trkpt lat="50.117458" lon="5.318522"><time>2026-05-02T19:36:29Z</time></trkpt>
<trkpt lat="50.117325" lon="5.320031"><time>2026-05-02T19:46:29Z</time></trkpt>
<trkpt lat="50.117935" lon="5.321798"><time>2026-05-02T19:56:29Z</time></trkpt>
<trkpt lat="50.118353" lon="5.322418"><time>2026-05-02T20:06:29Z</time></trkpt>
<trkpt lat="50.119297" lon="5.324187"><time>2026-05-02T20:16:29Z</time></trkpt>
</trkseg>
</trk>
<trk>
<name>xnsmsi16</name>
<cmt>v</cmt>
<desc>Masbourg Sentier n°i16 </desc>
<link href="https://chemins.be/masbourg/sentier/i16"/><trkseg>
<trkpt lat="50.088055" lon="5.282136"><time>2026-05-02T19:16:29Z</time></trkpt>
<trkpt lat="50.088078" lon="5.281739"><time>2026-05-02T19:26:29Z</time></trkpt>
<trkpt lat="50.088165" lon="5.281583"><time>2026-05-02T19:36:29Z</time></trkpt>
<trkpt lat="50.088157" lon="5.281495"><time>2026-05-02T19:46:29Z</time></trkpt>
<trkpt lat="50.088071" lon="5.281394"><time>2026-05-02T19:56:29Z</time></trkpt>
<trkpt lat="50.088007" lon="5.280471"><time>2026-05-02T20:06:29Z</time></trkpt>
</trkseg>
</trk>
<trk>
<name>xnsmsi17</name>
<cmt>v</cmt>
<desc>Masbourg Chemin n°i17 Les Croisettes</desc>
<link href="https://chemins.be/masbourg/chemin/i17"/><trkseg>
<trkpt lat="50.089597" lon="5.281536"><time>2026-05-02T19:16:29Z</time></trkpt>
<trkpt lat="50.088949" lon="5.280526"><time>2026-05-02T19:26:29Z</time></trkpt>
<trkpt lat="50.088421" lon="5.280292"><time>2026-05-02T19:36:29Z</time></trkpt>
<trkpt lat="50.087418" lon="5.280055"><time>2026-05-02T19:46:29Z</time></trkpt>
<trkpt lat="50.087110" lon="5.280042"><time>2026-05-02T19:56:29Z</time></trkpt>
</trkseg>
</trk>
<trk>
<name>xnsmsi18</name>
<cmt>v</cmt>
<desc>Masbourg Sentier n°i18 </desc>
<link href="https://chemins.be/masbourg/sentier/i18"/><trkseg>
<trkpt lat="50.090866" lon="5.281326"><time>2026-05-02T19:16:29Z</time></trkpt>
<trkpt lat="50.090420" lon="5.280767"><time>2026-05-02T19:26:29Z</time></trkpt>
<trkpt lat="50.090426" lon="5.280677"><time>2026-05-02T19:36:29Z</time></trkpt>
<trkpt lat="50.090486" lon="5.280671"><time>2026-05-02T19:46:29Z</time></trkpt>
<trkpt lat="50.090569" lon="5.280721"><time>2026-05-02T19:56:29Z</time></trkpt>
<trkpt lat="50.090951" lon="5.281089"><time>2026-05-02T20:06:29Z</time></trkpt>
<trkpt lat="50.091036" lon="5.280878"><time>2026-05-02T20:16:29Z</time></trkpt>
<trkpt lat="50.090956" lon="5.280790"><time>2026-05-02T20:26:29Z</time></trkpt>
<trkpt lat="50.090962" lon="5.280533"><time>2026-05-02T20:36:29Z</time></trkpt>
</trkseg>
</trk>
<trk>
<name>xnsmsi19</name>
<cmt>v</cmt>
<desc>Masbourg Sentier n°i19 </desc>
<link href="https://chemins.be/masbourg/sentier/i19"/><trkseg>
<trkpt lat="50.084934" lon="5.276148"><time>2026-05-02T19:16:29Z</time></trkpt>
<trkpt lat="50.085293" lon="5.275905"><time>2026-05-02T19:26:29Z</time></trkpt>
<trkpt lat="50.084563" lon="5.275107"><time>2026-05-02T19:36:29Z</time></trkpt>
</trkseg>
</trk>
<trk>
<name>xnsmsi2</name>
<cmt>r</cmt>
<desc>Masbourg Chemin n°i2 </desc>
<link href="https://chemins.be/masbourg/chemin/i2"/><trkseg>
<trkpt lat="50.112541" lon="5.312080"><time>2026-05-02T19:16:29Z</time></trkpt>
<trkpt lat="50.112602" lon="5.312905"><time>2026-05-02T19:26:29Z</time></trkpt>
</trkseg>
</trk>
<trk>
<name>xnsmsi3</name>
<cmt>v</cmt>
<desc>Masbourg Chemin n°i3 </desc>
<link href="https://chemins.be/masbourg/chemin/i3"/><trkseg>
<trkpt lat="50.086064" lon="5.302690"><time>2026-05-02T19:16:29Z</time></trkpt>
<trkpt lat="50.087860" lon="5.302647"><time>2026-05-02T19:26:29Z</time></trkpt>
<trkpt lat="50.088707" lon="5.303226"><time>2026-05-02T19:36:29Z</time></trkpt>
</trkseg>
</trk>
<trk>
<name>xnsmsi4</name>
<cmt>v</cmt>
<desc>Masbourg Chemin n°i4 </desc>
<link href="https://chemins.be/masbourg/chemin/i4"/><trkseg>
<trkpt lat="50.079295" lon="5.298015"><time>2026-05-02T19:16:29Z</time></trkpt>
<trkpt lat="50.078943" lon="5.298378"><time>2026-05-02T19:26:29Z</time></trkpt>
<trkpt lat="50.078708" lon="5.298643"><time>2026-05-02T19:36:29Z</time></trkpt>
<trkpt lat="50.078594" lon="5.299147"><time>2026-05-02T19:46:29Z</time></trkpt>
<trkpt lat="50.078591" lon="5.300295"><time>2026-05-02T19:56:29Z</time></trkpt>
<trkpt lat="50.078816" lon="5.301354"><time>2026-05-02T20:06:29Z</time></trkpt>
<trkpt lat="50.079481" lon="5.302598"><time>2026-05-02T20:16:29Z</time></trkpt>
<trkpt lat="50.079568" lon="5.303192"><time>2026-05-02T20:26:29Z</time></trkpt>
<trkpt lat="50.081237" lon="5.308060"><time>2026-05-02T20:36:29Z</time></trkpt>
<trkpt lat="50.081843" lon="5.309415"><time>2026-05-02T20:46:29Z</time></trkpt>
<trkpt lat="50.082136" lon="5.312862"><time>2026-05-02T20:56:29Z</time></trkpt>
<trkpt lat="50.082090" lon="5.315165"><time>2026-05-02T21:06:29Z</time></trkpt>
</trkseg>
</trk>
<trk>
<name>xnsmsi5</name>
<cmt>q</cmt>
<desc>Masbourg Sentier n°i5 </desc>
<link href="https://chemins.be/masbourg/sentier/i5"/><trkseg>
<trkpt lat="50.112843" lon="5.319931"><time>2026-05-02T19:16:29Z</time></trkpt>
<trkpt lat="50.113756" lon="5.317098"><time>2026-05-02T19:26:29Z</time></trkpt>
</trkseg>
</trk>
<trk>
<name>xnsmsi6</name>
<cmt>v</cmt>
<desc>Masbourg Chemin n°i6 </desc>
<link href="https://chemins.be/masbourg/chemin/i6"/><trkseg>
<trkpt lat="50.080625" lon="5.276022"><time>2026-05-02T19:16:29Z</time></trkpt>
<trkpt lat="50.079585" lon="5.276078"><time>2026-05-02T19:26:29Z</time></trkpt>
<trkpt lat="50.078579" lon="5.276031"><time>2026-05-02T19:36:29Z</time></trkpt>
<trkpt lat="50.078245" lon="5.276178"><time>2026-05-02T19:46:29Z</time></trkpt>
<trkpt lat="50.077983" lon="5.275936"><time>2026-05-02T19:56:29Z</time></trkpt>
<trkpt lat="50.077631" lon="5.276446"><time>2026-05-02T20:06:29Z</time></trkpt>
<trkpt lat="50.077073" lon="5.276491"><time>2026-05-02T20:16:29Z</time></trkpt>
<trkpt lat="50.076695" lon="5.276568"><time>2026-05-02T20:26:29Z</time></trkpt>
<trkpt lat="50.076507" lon="5.276480"><time>2026-05-02T20:36:29Z</time></trkpt>
<trkpt lat="50.076457" lon="5.275990"><time>2026-05-02T20:46:29Z</time></trkpt>
<trkpt lat="50.076317" lon="5.275555"><time>2026-05-02T20:56:29Z</time></trkpt>
<trkpt lat="50.075869" lon="5.275351"><time>2026-05-02T21:06:29Z</time></trkpt>
<trkpt lat="50.075401" lon="5.275342"><time>2026-05-02T21:16:29Z</time></trkpt>
<trkpt lat="50.074872" lon="5.275136"><time>2026-05-02T21:26:29Z</time></trkpt>
<trkpt lat="50.073852" lon="5.274516"><time>2026-05-02T21:36:29Z</time></trkpt>
<trkpt lat="50.073141" lon="5.274628"><time>2026-05-02T21:46:29Z</time></trkpt>
<trkpt lat="50.072658" lon="5.274104"><time>2026-05-02T21:56:29Z</time></trkpt>
<trkpt lat="50.072373" lon="5.274344"><time>2026-05-02T22:06:29Z</time></trkpt>
<trkpt lat="50.072427" lon="5.275118"><time>2026-05-02T22:16:29Z</time></trkpt>
<trkpt lat="50.072540" lon="5.275595"><time>2026-05-02T22:26:29Z</time></trkpt>
<trkpt lat="50.072617" lon="5.276113"><time>2026-05-02T22:36:29Z</time></trkpt>
<trkpt lat="50.072469" lon="5.276627"><time>2026-05-02T22:46:29Z</time></trkpt>
<trkpt lat="50.072421" lon="5.277031"><time>2026-05-02T22:56:29Z</time></trkpt>
</trkseg>
</trk>
<trk>
<name>xnsmsi7</name>
<cmt>v</cmt>
<desc>Masbourg Chemin n°i7 </desc>
<link href="https://chemins.be/masbourg/chemin/i7"/><trkseg>
<trkpt lat="50.080543" lon="5.295853"><time>2026-05-02T19:16:29Z</time></trkpt>
<trkpt lat="50.082348" lon="5.295357"><time>2026-05-02T19:26:29Z</time></trkpt>
<trkpt lat="50.082715" lon="5.294442"><time>2026-05-02T19:36:29Z</time></trkpt>
<trkpt lat="50.084221" lon="5.294611"><time>2026-05-02T19:46:29Z</time></trkpt>
<trkpt lat="50.084954" lon="5.294053"><time>2026-05-02T19:56:29Z</time></trkpt>
<trkpt lat="50.085425" lon="5.292469"><time>2026-05-02T20:06:29Z</time></trkpt>
<trkpt lat="50.085094" lon="5.290924"><time>2026-05-02T20:16:29Z</time></trkpt>
<trkpt lat="50.085062" lon="5.290280"><time>2026-05-02T20:26:29Z</time></trkpt>
<trkpt lat="50.085333" lon="5.289733"><time>2026-05-02T20:36:29Z</time></trkpt>
<trkpt lat="50.085801" lon="5.290464"><time>2026-05-02T20:46:29Z</time></trkpt>
<trkpt lat="50.085954" lon="5.290481"><time>2026-05-02T20:56:29Z</time></trkpt>
</trkseg>
</trk>
<trk>
<name>xnsmsi8</name>
<cmt>v</cmt>
<desc>Masbourg Chemin n°i8 </desc>
<link href="https://chemins.be/masbourg/chemin/i8"/><trkseg>
<trkpt lat="50.089370" lon="5.323445"><time>2026-05-02T19:16:29Z</time></trkpt>
<trkpt lat="50.089401" lon="5.323353"><time>2026-05-02T19:26:29Z</time></trkpt>
<trkpt lat="50.089482" lon="5.323245"><time>2026-05-02T19:36:29Z</time></trkpt>
<trkpt lat="50.089558" lon="5.323195"><time>2026-05-02T19:46:29Z</time></trkpt>
<trkpt lat="50.089654" lon="5.323177"><time>2026-05-02T19:56:29Z</time></trkpt>
<trkpt lat="50.089744" lon="5.323192"><time>2026-05-02T20:06:29Z</time></trkpt>
<trkpt lat="50.089869" lon="5.323247"><time>2026-05-02T20:16:29Z</time></trkpt>
<trkpt lat="50.090002" lon="5.323354"><time>2026-05-02T20:26:29Z</time></trkpt>
<trkpt lat="50.090132" lon="5.323420"><time>2026-05-02T20:36:29Z</time></trkpt>
</trkseg>
</trk>
<trk>
<name>xnsmsi9</name>
<cmt>v</cmt>
<desc>Masbourg Chemin n°i9 </desc>
<link href="https://chemins.be/masbourg/chemin/i9"/><trkseg>
<trkpt lat="50.108671" lon="5.327266"><time>2026-05-02T19:16:29Z</time></trkpt>
<trkpt lat="50.108695" lon="5.327079"><time>2026-05-02T19:26:29Z</time></trkpt>
<trkpt lat="50.108854" lon="5.326635"><time>2026-05-02T19:36:29Z</time></trkpt>
<trkpt lat="50.108832" lon="5.326335"><time>2026-05-02T19:46:29Z</time></trkpt>
<trkpt lat="50.108762" lon="5.326158"><time>2026-05-02T19:56:29Z</time></trkpt>
<trkpt lat="50.108174" lon="5.326555"><time>2026-05-02T20:06:29Z</time></trkpt>
<trkpt lat="50.107915" lon="5.326632"><time>2026-05-02T20:16:29Z</time></trkpt>
</trkseg>
</trk>
</gpx>